Time;durP1;ratioP1;P1;durP2;ratioP2;P2;SDS_P1;SDS_P2;PMS_P1;PMS_P2;Temp;Humidity;BMP_temperature;BMP_pressure;BME280_temperature;BME280_humidity;BME280_pressure;Samples;Min_cycle;Max_cycle;Signal;HPM_P1;HPM_P2
2022/07/04 00:01:30;;;;;;;1.98;1.77;;;23.70;55.80;;;;;;5105571;28;20103;-59
2022/07/04 00:03:57;;;;;;;2.10;1.90;;;23.60;56.00;;;;;;5102844;28;20051;-59
2022/07/04 00:06:23;;;;;;;1.90;1.80;;;23.60;55.70;;;;;;5109481;28;20399;-59
2022/07/04 00:08:49;;;;;;;1.80;1.50;;;23.50;55.60;;;;;;5103436;28;20030;-59
2022/07/04 00:11:14;;;;;;;1.70;1.60;;;23.50;55.50;;;;;;5104284;28;20036;-59
2022/07/04 00:13:40;;;;;;;1.65;1.40;;;23.40;55.40;;;;;;5099797;28;20484;-59
2022/07/04 00:16:06;;;;;;;2.15;1.90;;;23.50;55.50;;;;;;5103973;28;20032;-59
2022/07/04 00:18:31;;;;;;;1.63;1.52;;;23.40;55.30;;;;;;5108695;28;20051;-59
2022/07/04 00:20:57;;;;;;;1.90;1.77;;;23.40;55.20;;;;;;5101427;28;20427;-59
2022/07/04 00:23:23;;;;;;;1.55;1.40;;;23.40;55.00;;;;;;5102698;28;20012;-59
2022/07/04 00:25:48;;;;;;;1.80;1.70;;;23.40;55.00;;;;;;5096758;28;20052;-59
2022/07/04 00:28:14;;;;;;;1.50;1.40;;;23.40;55.20;;;;;;5101517;28;20515;-58
2022/07/04 00:30:39;;;;;;;2.03;1.80;;;23.40;55.20;;;;;;5105866;28;20357;-59
2022/07/04 00:33:07;;;;;;;1.50;1.40;;;23.30;55.10;;;;;;5100974;28;20043;-59
2022/07/04 00:35:33;;;;;;;1.52;1.42;;;23.30;55.40;;;;;;5101596;28;20011;-59
2022/07/04 00:37:58;;;;;;;1.13;1.13;;;23.30;55.40;;;;;;5101766;28;20545;-59
2022/07/04 00:40:24;;;;;;;1.70;1.60;;;23.30;55.40;;;;;;5103455;28;20032;-59
2022/07/04 00:42:49;;;;;;;2.25;1.58;;;23.20;55.30;;;;;;5100584;28;20797;-58
2022/07/04 00:45:15;;;;;;;1.85;1.60;;;23.30;55.40;;;;;;5104765;28;20039;-58
2022/07/04 00:47:41;;;;;;;1.77;1.67;;;23.20;55.40;;;;;;5103985;28;20043;-59
2022/07/04 00:50:07;;;;;;;1.70;1.60;;;23.20;55.30;;;;;;5111327;28;20024;-59
2022/07/04 00:52:32;;;;;;;1.70;1.60;;;23.20;55.40;;;;;;5101049;28;20103;-59
2022/07/04 00:55:00;;;;;;;1.58;1.48;;;23.20;55.40;;;;;;5103846;28;20020;-59
2022/07/04 00:57:26;;;;;;;2.00;1.83;;;23.20;55.40;;;;;;5106937;28;20597;-59
2022/07/04 00:59:52;;;;;;;1.95;1.73;;;23.20;55.50;;;;;;5102813;28;20031;-59
2022/07/04 01:02:17;;;;;;;1.88;1.77;;;23.20;55.40;;;;;;5100735;28;20376;-59
2022/07/04 01:04:43;;;;;;;1.63;1.52;;;23.20;55.50;;;;;;5103899;27;20031;-59
2022/07/04 01:07:11;;;;;;;2.45;1.77;;;23.20;55.50;;;;;;5104863;28;20031;-59
2022/07/04 01:09:37;;;;;;;1.67;1.58;;;23.20;55.40;;;;;;5096272;28;20024;-59
2022/07/04 01:12:03;;;;;;;2.05;1.80;;;23.20;55.40;;;;;;5105262;28;20024;-59
2022/07/04 01:14:29;;;;;;;2.10;1.90;;;23.20;55.40;;;;;;5102525;28;20024;-59
2022/07/04 01:16:54;;;;;;;1.63;1.52;;;23.20;55.40;;;;;;5108469;28;20036;-59
2022/07/04 01:19:20;;;;;;;1.70;1.60;;;23.10;55.30;;;;;;5102277;28;20052;-59
2022/07/04 01:21:46;;;;;;;1.55;1.42;;;23.10;55.30;;;;;;5104756;28;21397;-59
2022/07/04 01:24:13;;;;;;;1.80;1.70;;;23.10;55.30;;;;;;5099863;28;20043;-59
2022/07/04 01:26:38;;;;;;;1.90;1.70;;;23.10;55.30;;;;;;5111247;28;20019;-59
2022/07/04 01:29:04;;;;;;;1.17;1.17;;;23.20;55.40;;;;;;5107528;28;20036;-59
2022/07/04 01:31:30;;;;;;;1.60;1.50;;;23.10;55.40;;;;;;5095054;28;20023;-59
2022/07/04 01:33:55;;;;;;;1.50;1.40;;;23.10;55.50;;;;;;5108750;28;20474;-59
2022/07/04 01:36:21;;;;;;;1.58;1.48;;;23.10;55.40;;;;;;5102185;28;20016;-59
2022/07/04 01:38:46;;;;;;;2.15;1.75;;;23.10;55.30;;;;;;5104922;28;20031;-59
2022/07/04 01:41:12;;;;;;;2.10;1.67;;;23.10;55.40;;;;;;5098829;28;20027;-59
2022/07/04 01:43:38;;;;;;;1.88;1.52;;;23.10;55.30;;;;;;5095503;28;20101;-59
2022/07/04 01:46:03;;;;;;;1.52;1.42;;;23.10;55.40;;;;;;5104833;28;20028;-59
2022/07/04 01:48:29;;;;;;;1.60;1.50;;;23.10;55.40;;;;;;5102157;28;20040;-59
2022/07/04 01:50:55;;;;;;;2.15;1.50;;;23.10;55.40;;;;;;5104062;28;20042;-59
2022/07/04 01:53:20;;;;;;;1.95;1.65;;;23.00;55.40;;;;;;5100299;28;20027;-59
2022/07/04 01:55:46;;;;;;;1.73;1.63;;;23.00;55.60;;;;;;5104212;28;20027;-59
2022/07/04 01:58:12;;;;;;;1.58;1.48;;;22.90;56.00;;;;;;5102114;28;20103;-59
2022/07/04 02:03:22;;;;;;;1.75;1.65;;;22.80;56.70;;;;;;5096384;28;20545;-59
2022/07/04 02:05:48;;;;;;;1.75;1.65;;;22.80;56.90;;;;;;5102864;28;20032;-59
2022/07/04 02:08:13;;;;;;;1.67;1.50;;;22.70;57.10;;;;;;5106564;28;20024;-59
2022/07/04 02:10:39;;;;;;;1.85;1.75;;;22.70;57.10;;;;;;5101284;28;20099;-59
2022/07/04 02:13:05;;;;;;;1.52;1.42;;;22.70;57.10;;;;;;5109230;28;20031;-59
2022/07/04 02:15:38;;;;;;;1.63;1.52;;;22.60;57.10;;;;;;5093979;28;20038;-59
2022/07/04 02:18:06;;;;;;;1.85;1.75;;;22.60;57.20;;;;;;5099012;28;20575;-59
2022/07/04 02:20:34;;;;;;;1.75;1.60;;;22.60;57.20;;;;;;5099634;28;20020;-59
2022/07/04 02:22:59;;;;;;;1.85;1.75;;;22.50;57.30;;;;;;5100526;28;20119;-59
2022/07/04 02:25:25;;;;;;;2.05;1.85;;;22.60;57.10;;;;;;5103191;28;20558;-59
2022/07/04 02:27:51;;;;;;;1.73;1.60;;;22.60;57.20;;;;;;5099327;28;20380;-59
2022/07/04 02:30:17;;;;;;;1.50;1.40;;;22.50;57.20;;;;;;5100522;28;20475;-59
2022/07/04 02:32:42;;;;;;;1.90;1.80;;;22.50;57.20;;;;;;5096633;28;20032;-59
2022/07/04 02:35:09;;;;;;;1.55;1.45;;;22.50;57.10;;;;;;5101492;28;20387;-59
2022/07/04 02:37:35;;;;;;;1.55;1.45;;;22.50;57.20;;;;;;5098045;28;20039;-59
2022/07/04 02:40:01;;;;;;;2.38;1.83;;;22.50;57.30;;;;;;5096749;28;20529;-59
2022/07/04 02:42:31;;;;;;;1.80;1.65;;;22.50;57.30;;;;;;5101314;28;20418;-59
2022/07/04 02:44:57;;;;;;;1.50;1.40;;;22.50;57.20;;;;;;5092694;28;20479;-59
2022/07/04 02:47:23;;;;;;;1.67;1.58;;;22.50;57.20;;;;;;5096405;28;20143;-59
2022/07/04 02:49:48;;;;;;;1.83;1.60;;;22.50;57.30;;;;;;5093387;28;20032;-59
2022/07/04 02:52:15;;;;;;;1.40;1.33;;;22.60;57.40;;;;;;5101195;28;20039;-59
2022/07/04 02:54:41;;;;;;;1.48;1.38;;;22.60;57.50;;;;;;5095887;28;20047;-59
2022/07/04 02:57:07;;;;;;;1.85;1.65;;;22.60;57.70;;;;;;5098325;28;20024;-59
2022/07/04 02:59:33;;;;;;;1.70;1.60;;;22.60;57.90;;;;;;5094726;28;20032;-59
2022/07/04 03:01:59;;;;;;;1.70;1.60;;;22.60;58.00;;;;;;5101451;28;20476;-59
2022/07/04 03:04:24;;;;;;;1.75;1.65;;;22.70;58.10;;;;;;5098999;28;20028;-59
2022/07/04 03:06:50;;;;;;;2.00;1.80;;;22.70;58.20;;;;;;5096379;28;20698;-59
2022/07/04 03:09:16;;;;;;;2.00;1.90;;;22.80;58.40;;;;;;5107765;28;20063;-59
2022/07/04 03:11:42;;;;;;;1.88;1.70;;;22.80;58.50;;;;;;5097184;28;20069;-59
2022/07/04 03:14:08;;;;;;;1.70;1.60;;;22.90;58.60;;;;;;5097274;28;20112;-59
2022/07/04 03:16:34;;;;;;;1.65;1.48;;;22.90;58.60;;;;;;5095262;28;20097;-59
2022/07/04 03:18:59;;;;;;;1.63;1.52;;;22.90;58.50;;;;;;5096027;28;20032;-59
2022/07/04 03:21:25;;;;;;;1.95;1.70;;;23.00;58.40;;;;;;5095237;28;20404;-59
2022/07/04 03:23:59;;;;;;;1.63;1.52;;;23.00;58.40;;;;;;5103125;28;20483;-59
2022/07/04 03:26:27;;;;;;;2.10;1.90;;;23.00;58.60;;;;;;5107013;28;20463;-59
2022/07/04 03:28:53;;;;;;;2.63;1.77;;;23.10;58.70;;;;;;5096230;28;20081;-59
2022/07/04 03:31:19;;;;;;;1.75;1.65;;;23.10;58.90;;;;;;5101792;28;20020;-59
2022/07/04 03:33:45;;;;;;;2.03;1.90;;;23.30;59.10;;;;;;5099693;28;20024;-59
2022/07/04 03:36:10;;;;;;;1.50;1.40;;;23.50;59.60;;;;;;5081695;28;20550;-59
2022/07/04 03:38:36;;;;;;;2.03;1.80;;;23.70;59.70;;;;;;5102366;28;20024;-59
2022/07/04 03:41:02;;;;;;;1.70;1.60;;;24.00;60.20;;;;;;5098605;28;20024;-59
2022/07/04 03:43:28;;;;;;;1.67;1.58;;;24.40;60.50;;;;;;5096058;28;20032;-59
2022/07/04 03:45:53;;;;;;;1.58;1.48;;;25.00;60.20;;;;;;5097251;28;20100;-59
2022/07/04 03:48:20;;;;;;;1.90;1.65;;;25.50;59.80;;;;;;5099628;28;20044;-58
2022/07/04 03:50:46;;;;;;;1.60;1.50;;;26.30;59.40;;;;;;5098331;28;20035;-59
2022/07/04 03:53:12;;;;;;;1.27;1.23;;;27.30;58.60;;;;;;5103541;28;20099;-59
2022/07/04 03:55:38;;;;;;;1.55;1.45;;;28.30;57.50;;;;;;5094937;28;20556;-59
2022/07/04 03:58:05;;;;;;;1.52;1.40;;;29.30;56.30;;;;;;5105308;28;20135;-59
2022/07/04 04:00:31;;;;;;;1.08;1.08;;;30.20;55.20;;;;;;5101881;28;20488;-59
2022/07/04 04:02:57;;;;;;;2.10;1.50;;;31.10;54.20;;;;;;5096299;28;20028;-59
2022/07/04 04:05:26;;;;;;;1.35;1.25;;;32.00;53.10;;;;;;5093461;28;20028;-58
2022/07/04 04:07:53;;;;;;;1.50;1.40;;;32.70;52.00;;;;;;5099436;28;20027;-59
2022/07/04 04:10:19;;;;;;;1.48;1.33;;;33.50;51.00;;;;;;5093767;28;20058;-59
2022/07/04 04:12:45;;;;;;;1.55;1.45;;;34.10;50.20;;;;;;5106661;28;20019;-59
2022/07/04 04:15:11;;;;;;;1.63;1.48;;;34.80;49.40;;;;;;5093587;28;20127;-59
2022/07/04 04:17:36;;;;;;;1.52;1.40;;;35.40;48.60;;;;;;5096272;28;20024;-58
2022/07/04 04:20:02;;;;;;;1.23;1.13;;;36.00;48.00;;;;;;5100712;28;20032;-58
2022/07/04 04:22:29;;;;;;;1.23;1.13;;;36.50;47.20;;;;;;5097738;28;20028;-58
2022/07/04 04:24:54;;;;;;;1.55;1.30;;;37.00;46.50;;;;;;5088016;28;20484;-58
2022/07/04 04:27:20;;;;;;;1.23;1.00;;;37.30;45.80;;;;;;5094659;28;20073;-59
2022/07/04 04:29:46;;;;;;;1.55;1.45;;;37.70;45.20;;;;;;5094023;28;20028;-59
2022/07/04 04:32:12;;;;;;;1.10;1.10;;;38.00;44.70;;;;;;5081159;28;20027;-59
2022/07/04 04:34:38;;;;;;;1.42;1.33;;;38.20;44.40;;;;;;5100907;28;20028;-58
2022/07/04 04:37:04;;;;;;;1.27;1.17;;;38.50;43.90;;;;;;5099251;28;20036;-58
2022/07/04 04:39:30;;;;;;;1.25;1.17;;;38.90;43.50;;;;;;5094504;28;20565;-59
2022/07/04 04:41:55;;;;;;;1.42;1.20;;;39.10;43.10;;;;;;5101323;28;20032;-59
2022/07/04 04:44:21;;;;;;;1.08;1.08;;;39.40;42.90;;;;;;5101983;28;20483;-59
2022/07/04 04:46:47;;;;;;;1.10;1.05;;;39.60;42.50;;;;;;5096288;28;20399;-59
2022/07/04 04:49:12;;;;;;;1.05;1.00;;;39.90;42.10;;;;;;5095505;28;20475;-59
2022/07/04 04:51:40;;;;;;;0.90;0.90;;;40.00;41.70;;;;;;5092786;28;20084;-59
2022/07/04 04:54:05;;;;;;;1.30;1.10;;;40.10;41.50;;;;;;5097614;28;20422;-60
2022/07/04 04:56:31;;;;;;;1.30;1.20;;;40.20;41.30;;;;;;5099776;28;20024;-60
2022/07/04 04:58:56;;;;;;;1.20;1.00;;;40.30;41.10;;;;;;5096840;27;20031;-59
2022/07/04 05:01:22;;;;;;;1.13;1.02;;;40.40;41.10;;;;;;5099776;28;20024;-60
2022/07/04 05:03:48;;;;;;;1.38;1.27;;;40.50;40.80;;;;;;5097394;27;20024;-60
2022/07/04 05:06:13;;;;;;;1.05;1.05;;;40.70;40.70;;;;;;5099071;28;20518;-60
2022/07/04 05:08:39;;;;;;;1.13;1.08;;;40.70;40.50;;;;;;5101681;27;20059;-60
2022/07/04 05:11:05;;;;;;;1.30;1.20;;;40.80;40.40;;;;;;5095814;28;20031;-59
2022/07/04 05:13:31;;;;;;;1.30;1.17;;;40.90;40.30;;;;;;5108290;28;20429;-59
2022/07/04 05:15:56;;;;;;;1.67;1.20;;;40.90;40.00;;;;;;5077293;28;20023;-58
2022/07/04 05:18:22;;;;;;;1.30;1.20;;;40.90;39.80;;;;;;5105439;28;20457;-59
2022/07/04 05:20:48;;;;;;;1.40;1.10;;;40.80;39.60;;;;;;5094769;28;20031;-59
2022/07/04 05:23:13;;;;;;;0.98;0.98;;;40.80;39.30;;;;;;5094541;28;20035;-59
2022/07/04 05:25:39;;;;;;;1.23;1.10;;;40.70;39.00;;;;;;5101014;28;20023;-59
2022/07/04 05:28:05;;;;;;;1.17;1.08;;;40.40;38.60;;;;;;5099929;27;20020;-59
2022/07/04 05:30:31;;;;;;;1.30;1.20;;;40.00;38.80;;;;;;5099145;27;20043;-59
2022/07/04 05:32:58;;;;;;;1.30;1.20;;;39.20;38.90;;;;;;5099548;27;20507;-59
2022/07/04 05:35:24;;;;;;;1.40;1.30;;;38.40;39.40;;;;;;5102338;28;20455;-60
2022/07/04 05:37:49;;;;;;;1.35;1.23;;;37.50;39.80;;;;;;5105958;27;20107;-59
2022/07/04 05:40:15;;;;;;;1.48;1.38;;;36.60;40.40;;;;;;5100625;27;20024;-59
2022/07/04 05:42:41;;;;;;;2.22;1.45;;;35.80;40.90;;;;;;5101518;27;20074;-60
2022/07/04 05:45:07;;;;;;;1.42;1.33;;;35.10;41.60;;;;;;5097942;27;20106;-59
2022/07/04 05:47:33;;;;;;;1.88;1.55;;;34.40;42.10;;;;;;5097651;27;20406;-59
2022/07/04 05:50:00;;;;;;;2.65;1.95;;;33.80;42.60;;;;;;5090878;28;20031;-59
2022/07/04 05:52:26;;;;;;;1.65;1.55;;;33.20;43.10;;;;;;5094256;27;20043;-60
2022/07/04 05:54:51;;;;;;;1.98;1.60;;;32.80;43.60;;;;;;5097281;27;20024;-59
2022/07/04 05:57:17;;;;;;;2.00;1.60;;;32.50;44.20;;;;;;5099298;27;20016;-58
2022/07/04 05:59:44;;;;;;;1.73;1.63;;;32.10;44.50;;;;;;5093275;28;20110;-59
2022/07/04 06:02:10;;;;;;;1.63;1.52;;;31.80;44.70;;;;;;5088032;27;20112;-59
2022/07/04 06:04:36;;;;;;;1.52;1.42;;;31.50;45.10;;;;;;5089272;27;20106;-58
2022/07/04 06:07:02;;;;;;;1.67;1.58;;;31.30;45.60;;;;;;5095505;28;20024;-59
2022/07/04 06:09:28;;;;;;;1.77;1.52;;;31.10;45.80;;;;;;5090004;27;20079;-59
2022/07/04 06:11:54;;;;;;;2.05;1.88;;;30.90;46.10;;;;;;5054122;27;20080;-59
2022/07/04 06:14:19;;;;;;;2.00;1.83;;;30.70;46.50;;;;;;5088182;27;20028;-59
2022/07/04 06:16:45;;;;;;;1.65;1.55;;;30.60;46.80;;;;;;5094172;27;20028;-59
2022/07/04 06:19:10;;;;;;;1.60;1.45;;;30.40;47.10;;;;;;5105731;27;20034;-58
2022/07/04 06:21:36;;;;;;;1.90;1.80;;;30.30;47.30;;;;;;5089074;27;20028;-59
2022/07/04 06:24:03;;;;;;;1.50;1.40;;;30.20;47.50;;;;;;5085591;27;20058;-59
2022/07/04 06:26:29;;;;;;;1.48;1.38;;;30.10;47.70;;;;;;5083681;27;20536;-59
2022/07/04 06:28:55;;;;;;;2.05;1.70;;;30.00;47.90;;;;;;5082370;27;20432;-58
2022/07/04 06:31:21;;;;;;;1.85;1.75;;;29.90;47.90;;;;;;5080154;27;20087;-59
2022/07/04 06:36:32;;;;;;;1.80;1.40;;;29.70;48.10;;;;;;5085152;27;20077;-58
2022/07/04 06:38:58;;;;;;;1.67;1.58;;;29.60;48.40;;;;;;5084094;27;20502;-60
2022/07/04 06:41:24;;;;;;;1.38;1.27;;;29.60;48.60;;;;;;5086741;27;20536;-59
2022/07/04 06:43:49;;;;;;;1.85;1.48;;;29.50;48.80;;;;;;5085577;27;20020;-59
2022/07/04 06:46:15;;;;;;;2.15;1.60;;;29.50;49.10;;;;;;5080374;27;20118;-59
2022/07/04 06:48:41;;;;;;;1.70;1.60;;;29.50;49.00;;;;;;5080543;27;20043;-58
2022/07/04 06:51:07;;;;;;;1.25;1.15;;;29.40;49.10;;;;;;5080332;27;20066;-59
2022/07/04 06:53:34;;;;;;;1.40;1.30;;;29.30;49.30;;;;;;5082457;27;20048;-59
2022/07/04 06:55:59;;;;;;;1.40;1.40;;;29.40;49.70;;;;;;5085275;27;20554;-59
2022/07/04 06:58:25;;;;;;;1.73;1.63;;;29.30;50.00;;;;;;5086496;28;20491;-59
2022/07/04 07:00:50;;;;;;;1.40;1.23;;;29.30;50.00;;;;;;5076627;27;20032;-59
2022/07/04 07:03:16;;;;;;;2.17;1.92;;;29.20;50.10;;;;;;5071744;27;20063;-60
2022/07/04 07:05:43;;;;;;;1.92;1.80;;;29.20;50.30;;;;;;5069319;27;20983;-59
2022/07/04 07:08:08;;;;;;;2.03;1.90;;;29.20;50.30;;;;;;5078075;27;20036;-60
2022/07/04 07:10:35;;;;;;;1.90;1.80;;;29.10;50.20;;;;;;5069318;28;20703;-59
2022/07/04 07:13:02;;;;;;;1.90;1.70;;;29.10;50.50;;;;;;5072675;27;20032;-61
2022/07/04 07:15:28;;;;;;;1.70;1.60;;;29.10;50.40;;;;;;5075765;27;20028;-60
2022/07/04 07:17:54;;;;;;;1.83;1.73;;;29.10;50.60;;;;;;5074989;27;20039;-59
2022/07/04 07:20:20;;;;;;;1.60;1.50;;;29.00;50.70;;;;;;5074277;28;20032;-58
2022/07/04 07:22:46;;;;;;;1.75;1.65;;;29.00;50.70;;;;;;5078740;27;20043;-59
2022/07/04 07:25:13;;;;;;;1.73;1.60;;;29.00;50.90;;;;;;5075395;28;20062;-59
2022/07/04 07:27:39;;;;;;;1.85;1.67;;;29.00;51.10;;;;;;5077293;27;20050;-59
2022/07/04 07:30:05;;;;;;;1.60;1.50;;;29.00;51.20;;;;;;5074843;28;20055;-59
2022/07/04 07:32:32;;;;;;;2.53;2.33;;;29.00;51.30;;;;;;5072846;28;20084;-58
2022/07/04 07:34:57;;;;;;;2.70;2.22;;;29.00;51.40;;;;;;5076121;28;20043;-58
2022/07/04 07:37:23;;;;;;;2.05;1.88;;;28.90;51.20;;;;;;5080815;28;20032;-59
2022/07/04 07:39:49;;;;;;;2.58;2.03;;;28.90;51.20;;;;;;5078988;28;20034;-59
2022/07/04 07:42:16;;;;;;;1.88;1.65;;;28.90;51.20;;;;;;5080279;27;20110;-59
2022/07/04 07:44:45;;;;;;;2.42;2.20;;;28.80;51.20;;;;;;5080845;28;20123;-61
2022/07/04 07:47:11;;;;;;;2.10;1.85;;;28.80;51.80;;;;;;5051401;28;20522;-60
2022/07/04 07:49:36;;;;;;;2.22;2.03;;;28.80;51.30;;;;;;5078661;28;20032;-59
2022/07/04 07:52:02;;;;;;;2.13;1.92;;;28.80;51.40;;;;;;5075043;28;20062;-59
2022/07/04 07:54:28;;;;;;;1.92;1.83;;;28.80;51.40;;;;;;5069723;28;20034;-60
2022/07/04 07:56:53;;;;;;;1.63;1.52;;;28.80;51.30;;;;;;5075453;28;20086;-59
2022/07/04 07:59:19;;;;;;;2.40;2.20;;;28.70;51.50;;;;;;5083081;28;20075;-60
2022/07/04 08:01:45;;;;;;;2.13;1.90;;;28.70;51.60;;;;;;5070709;28;20036;-59
2022/07/04 08:06:55;;;;;;;2.63;1.83;;;28.70;51.80;;;;;;5067317;28;20101;-59
2022/07/04 08:09:20;;;;;;;2.00;1.80;;;28.70;51.90;;;;;;5080726;28;20552;-59
2022/07/04 08:11:46;;;;;;;1.73;1.63;;;28.70;52.00;;;;;;5079647;28;20027;-59
2022/07/04 08:14:12;;;;;;;1.85;1.70;;;28.70;51.90;;;;;;5072652;28;20028;-61
2022/07/04 08:16:38;;;;;;;1.98;1.80;;;28.70;51.70;;;;;;5075595;28;20038;-62
2022/07/04 08:19:03;;;;;;;1.70;1.60;;;28.60;51.50;;;;;;5078071;27;20038;-60
2022/07/04 08:21:29;;;;;;;2.90;1.63;;;28.70;51.70;;;;;;5080987;27;20031;-60
2022/07/04 08:23:55;;;;;;;1.63;1.52;;;28.70;51.70;;;;;;5081795;27;20150;-61
2022/07/04 08:26:20;;;;;;;2.00;1.80;;;28.70;51.70;;;;;;5082774;27;20174;-60
2022/07/04 08:28:46;;;;;;;1.80;1.70;;;28.70;51.70;;;;;;5082429;27;20146;-59
2022/07/04 08:31:12;;;;;;;1.98;1.88;;;28.70;51.80;;;;;;5083349;27;20043;-58
2022/07/04 08:33:38;;;;;;;1.70;1.60;;;28.70;51.80;;;;;;5079564;27;20020;-59
2022/07/04 08:36:04;;;;;;;1.75;1.65;;;28.70;51.60;;;;;;5083003;27;20442;-59
2022/07/04 08:38:30;;;;;;;2.05;1.85;;;28.70;51.50;;;;;;5060428;27;20028;-59
2022/07/04 08:40:58;;;;;;;2.55;1.88;;;28.80;51.40;;;;;;5078586;27;20171;-60
2022/07/04 08:43:25;;;;;;;1.55;1.45;;;28.70;51.30;;;;;;5082629;27;20058;-59
2022/07/04 08:45:53;;;;;;;1.70;1.60;;;28.80;51.40;;;;;;5089417;27;20036;-59
2022/07/04 08:48:23;;;;;;;2.65;1.90;;;28.70;51.10;;;;;;5085052;27;20085;-60
2022/07/04 08:50:51;;;;;;;1.70;1.60;;;28.70;51.20;;;;;;5085154;27;20039;-59
2022/07/04 08:53:21;;;;;;;2.30;2.10;;;28.70;51.10;;;;;;5084703;27;20306;-60
2022/07/04 08:58:33;;;;;;;1.58;1.48;;;28.60;51.00;;;;;;5078386;27;20050;-60
2022/07/04 09:01:14;;;;;;;2.00;1.88;;;28.60;50.70;;;;;;5075263;27;20043;-61
2022/07/04 09:03:42;;;;;;;1.95;1.83;;;28.60;50.70;;;;;;5083847;27;20036;-59
2022/07/04 09:06:08;;;;;;;1.70;1.60;;;28.50;50.70;;;;;;5084305;27;20035;-58
2022/07/04 09:08:33;;;;;;;1.70;1.60;;;28.50;51.30;;;;;;5082601;27;20039;-61
2022/07/04 09:11:00;;;;;;;2.55;2.10;;;28.40;50.70;;;;;;5085899;27;20080;-61
2022/07/04 09:13:25;;;;;;;1.90;1.80;;;28.40;50.80;;;;;;5083374;27;20024;-61
2022/07/04 09:15:52;;;;;;;2.13;1.85;;;28.40;50.60;;;;;;5085423;27;20030;-62
2022/07/04 09:18:28;;;;;;;1.92;1.80;;;28.30;50.40;;;;;;5085828;27;20601;-61
2022/07/04 09:20:55;;;;;;;1.67;1.58;;;28.30;50.30;;;;;;5088944;27;20031;-59
2022/07/04 09:23:29;;;;;;;2.10;1.90;;;28.30;50.50;;;;;;5082473;27;20059;-62
2022/07/04 09:26:21;;;;;;;2.80;1.80;;;28.30;50.60;;;;;;5086189;27;20027;-60
2022/07/04 09:28:56;;;;;;;1.90;1.80;;;28.20;50.30;;;;;;5086156;27;20124;-61
2022/07/04 09:31:24;;;;;;;1.92;1.83;;;28.20;50.40;;;;;;5086874;27;20857;-61
2022/07/04 09:34:03;;;;;;;1.70;1.58;;;28.20;50.60;;;;;;5083017;28;20023;-62
2022/07/04 09:36:31;;;;;;;3.10;1.95;;;28.20;50.70;;;;;;5075422;27;20151;-59
2022/07/04 09:39:15;;;;;;;2.20;2.00;;;28.20;50.70;;;;;;5078307;27;20118;-61
2022/07/04 09:41:49;;;;;;;1.80;1.70;;;28.10;50.60;;;;;;5082876;27;20039;-60
2022/07/04 09:44:15;;;;;;;1.67;1.58;;;28.10;50.70;;;;;;5083434;27;20032;-60
2022/07/04 09:46:41;;;;;;;2.15;1.77;;;28.10;50.80;;;;;;5078373;27;20034;-60
2022/07/04 09:49:07;;;;;;;1.83;1.63;;;28.10;50.80;;;;;;5076296;27;20052;-61
2022/07/04 09:51:41;;;;;;;2.10;1.90;;;28.00;50.60;;;;;;5074519;27;20028;-60
2022/07/04 09:54:13;;;;;;;1.83;1.67;;;28.00;50.70;;;;;;5074150;27;20579;-61
2022/07/04 09:57:00;;;;;;;2.13;1.90;;;28.00;50.80;;;;;;5076991;27;20062;-61
2022/07/04 09:59:27;;;;;;;2.20;2.00;;;27.90;50.80;;;;;;5068480;27;20062;-61
2022/07/04 10:02:10;;;;;;;2.13;1.85;;;27.90;50.90;;;;;;5073218;27;20039;-61
2022/07/04 10:04:43;;;;;;;1.52;1.27;;;27.90;51.00;;;;;;5075751;28;20984;-61
2022/07/04 10:07:09;;;;;;;1.77;1.67;;;27.90;51.10;;;;;;5079923;27;20028;-61
2022/07/04 10:09:34;;;;;;;2.33;1.70;;;27.90;50.90;;;;;;5079491;28;20043;-61
2022/07/04 10:12:01;;;;;;;1.70;1.60;;;27.90;50.90;;;;;;5082298;27;20015;-62
2022/07/04 10:14:27;;;;;;;1.70;1.60;;;27.90;50.70;;;;;;5077833;27;20031;-61
2022/07/04 10:16:54;;;;;;;1.50;1.40;;;27.90;50.40;;;;;;5070104;27;20418;-61
2022/07/04 10:19:20;;;;;;;2.45;1.55;;;27.80;50.30;;;;;;5059266;28;20035;-61
2022/07/04 10:21:47;;;;;;;1.77;1.67;;;27.80;50.50;;;;;;5084079;27;20028;-61
2022/07/04 10:24:12;;;;;;;2.10;1.90;;;27.90;50.70;;;;;;5077871;27;20076;-61
2022/07/04 10:26:38;;;;;;;1.80;1.70;;;27.80;50.60;;;;;;5075126;27;20613;-61
2022/07/04 10:29:04;;;;;;;1.80;1.70;;;27.80;50.60;;;;;;5081525;27;21399;-59
2022/07/04 10:31:31;;;;;;;1.55;1.45;;;27.80;50.60;;;;;;5075300;27;20032;-62
2022/07/04 10:33:59;;;;;;;1.50;1.40;;;27.80;50.70;;;;;;5075185;27;20138;-61
2022/07/04 10:36:29;;;;;;;1.48;1.38;;;27.90;50.80;;;;;;5073885;27;20062;-61
2022/07/04 10:38:58;;;;;;;1.70;1.60;;;27.80;50.80;;;;;;5073317;27;20031;-61
2022/07/04 10:41:25;;;;;;;1.60;1.50;;;27.80;50.80;;;;;;5078578;27;20039;-62
2022/07/04 10:44:01;;;;;;;1.50;1.40;;;27.90;50.80;;;;;;5087021;27;20436;-61
2022/07/04 10:46:29;;;;;;;1.75;1.65;;;27.90;51.50;;;;;;5076853;27;20024;-62
2022/07/04 10:49:17;;;;;;;1.75;1.52;;;27.90;50.90;;;;;;5076025;27;20044;-62
2022/07/04 10:51:45;;;;;;;1.98;1.85;;;27.90;50.70;;;;;;5076705;27;20023;-60
2022/07/04 10:54:20;;;;;;;1.58;1.48;;;27.80;50.60;;;;;;5078976;27;20020;-62
2022/07/04 10:56:52;;;;;;;1.52;1.42;;;27.90;50.50;;;;;;5079598;27;20055;-61
2022/07/04 10:59:26;;;;;;;1.65;1.55;;;27.90;50.40;;;;;;5085264;27;20470;-60
2022/07/04 11:02:06;;;;;;;4.30;2.20;;;27.90;50.40;;;;;;5077187;27;20765;-61
2022/07/04 11:05:05;;;;;;;2.38;1.95;;;27.80;50.30;;;;;;5068897;27;20043;-62
2022/07/04 11:07:30;;;;;;;1.80;1.70;;;27.80;50.10;;;;;;5076461;27;20142;-61
2022/07/04 11:10:29;;;;;;;2.00;1.80;;;27.90;50.20;;;;;;5076671;28;20077;-61
2022/07/04 11:12:55;;;;;;;1.63;1.52;;;27.80;50.10;;;;;;5078179;27;20031;-61
2022/07/04 11:15:29;;;;;;;1.77;1.67;;;27.90;50.00;;;;;;5077153;27;20020;-60
2022/07/04 11:18:00;;;;;;;1.75;1.65;;;27.90;49.90;;;;;;5076079;28;20032;-60
2022/07/04 11:20:38;;;;;;;2.05;1.85;;;27.80;49.90;;;;;;5072924;28;20027;-61
2022/07/04 11:23:15;;;;;;;2.22;2.03;;;27.80;50.10;;;;;;5079032;28;20039;-58
2022/07/04 11:25:43;;;;;;;1.90;1.80;;;27.80;50.10;;;;;;5072743;27;20031;-59
2022/07/04 11:28:23;;;;;;;1.98;1.88;;;27.80;50.20;;;;;;5073115;28;20039;-59
2022/07/04 11:31:01;;;;;;;2.13;1.93;;;27.80;50.20;;;;;;5072846;28;20039;-59
2022/07/04 11:33:30;;;;;;;2.50;1.88;;;27.90;50.30;;;;;;5078916;27;20020;-59
2022/07/04 11:36:14;;;;;;;2.45;2.05;;;27.80;50.30;;;;;;5075424;27;20036;-62
2022/07/04 11:38:46;;;;;;;2.30;2.10;;;27.90;50.30;;;;;;5075548;28;20051;-59
2022/07/04 11:46:40;;;;;;;2.30;2.10;;;27.80;50.50;;;;;;5077633;28;20057;-60
2022/07/04 11:49:12;;;;;;;2.13;1.92;;;27.80;50.40;;;;;;5071750;28;20044;-62
2022/07/04 11:51:47;;;;;;;3.38;2.60;;;27.80;50.60;;;;;;5083639;27;20058;-62
2022/07/04 11:54:13;;;;;;;2.40;2.20;;;27.80;50.60;;;;;;5084939;27;20073;-61
2022/07/04 11:56:39;;;;;;;2.42;2.20;;;27.80;50.60;;;;;;5080013;27;20032;-62
2022/07/04 11:59:13;;;;;;;2.58;2.30;;;27.80;50.60;;;;;;5047100;27;20108;-60
2022/07/04 12:01:40;;;;;;;2.95;2.55;;;27.80;50.70;;;;;;5069627;27;20172;-59
2022/07/04 12:04:16;;;;;;;2.65;2.10;;;27.80;51.00;;;;;;5075027;27;20031;-62
2022/07/04 12:06:42;;;;;;;2.75;2.42;;;27.80;50.90;;;;;;5077707;27;20069;-61
2022/07/04 12:09:08;;;;;;;2.50;2.17;;;27.80;51.00;;;;;;5085212;27;20024;-60
2022/07/04 12:11:58;;;;;;;2.60;2.40;;;27.80;51.10;;;;;;5081243;27;20027;-61
2022/07/04 12:14:26;;;;;;;2.67;2.20;;;27.80;51.30;;;;;;5075016;27;20028;-61
2022/07/04 12:17:16;;;;;;;2.28;2.08;;;27.80;51.20;;;;;;5077341;27;20024;-60
2022/07/04 12:19:59;;;;;;;2.70;2.50;;;27.80;51.50;;;;;;5083449;27;20027;-60
2022/07/04 12:22:25;;;;;;;2.75;2.38;;;27.80;51.60;;;;;;5081563;27;20036;-61
2022/07/04 12:24:51;;;;;;;2.45;2.03;;;27.80;51.60;;;;;;5078994;27;20046;-60
2022/07/04 12:27:18;;;;;;;2.20;2.00;;;27.80;51.70;;;;;;5079599;27;20489;-60
2022/07/04 12:29:51;;;;;;;3.20;2.75;;;27.80;51.90;;;;;;5083488;27;20090;-60
2022/07/04 12:32:17;;;;;;;2.42;2.13;;;27.80;52.20;;;;;;5074266;27;20023;-61
2022/07/04 12:34:44;;;;;;;2.65;2.08;;;27.80;52.10;;;;;;5080325;27;22904;-61
2022/07/04 12:37:12;;;;;;;2.67;2.47;;;27.80;52.30;;;;;;5082949;27;20043;-61
2022/07/04 12:39:40;;;;;;;2.20;2.00;;;27.90;52.50;;;;;;5083755;27;20123;-61
2022/07/04 12:42:14;;;;;;;2.42;2.22;;;27.80;52.30;;;;;;5082466;27;20031;-61
2022/07/04 12:44:41;;;;;;;2.70;2.47;;;27.90;52.50;;;;;;5084595;27;20042;-59
2022/07/04 12:47:08;;;;;;;2.75;2.35;;;27.90;52.80;;;;;;5085826;27;20051;-59
2022/07/04 12:49:42;;;;;;;3.00;2.53;;;27.80;52.60;;;;;;5082027;27;20088;-59
2022/07/04 12:52:18;;;;;;;4.25;2.70;;;27.80;52.60;;;;;;5087545;27;20020;-59
2022/07/04 12:55:01;;;;;;;2.60;2.40;;;27.90;52.80;;;;;;5086420;27;20031;-59
2022/07/04 12:57:27;;;;;;;2.70;2.50;;;27.90;52.70;;;;;;5086563;27;20023;-59
2022/07/04 12:59:52;;;;;;;3.38;2.95;;;27.90;52.70;;;;;;5085900;27;20062;-58
2022/07/04 13:02:18;;;;;;;2.95;2.60;;;27.80;52.60;;;;;;5074288;27;20103;-61
2022/07/04 13:04:44;;;;;;;2.60;2.40;;;27.80;52.50;;;;;;5048058;28;20868;-58
2022/07/04 13:07:17;;;;;;;3.25;2.30;;;27.90;52.70;;;;;;5078410;27;20036;-59